Hovedside
METAR-TAF:

METAR-TAF

Lufthavner :

Kajana lufthavn

Kajana, Finland

breddegrad: 64-17N, lengdegrad: 027-41E, høyde over havet: 143 m

Gjeldene værobservasjon

Denne rapporten ble laget for 27 minutter siden, klokken 18:20 UTC
Vind 6 kt fra Sør-sørvest
Temperatur -5°C
Luftfuktighet 86%
Trykk 1032 hPa
Sikt 10 km eller mer
ingen skyer under 1500 m og ingen bygeskyer

METAR: EFKI 191820Z AUTO 21006KT CAVOK M05/M07 Q1032

Tid: 20:47 (18:47 UTC)

Varsel

Denne rapporten ble laget for 1 time og 9 minutter siden, klokken 17:38 UTC
Varsel gyldig fra 19. klokken 18 UTC til 19. klokken 22 UTC
Vind 4 kt fra Vest-sørvest
Sikt 10 km eller mer
ingen skyer under 1500 m og ingen bygeskyer
Blir
fra 19. klokken 19 UTC til 19. klokken 21 UTC
Brutte skyer i en høyde av 600 ft
Sannsynlighet 30%
fra 19. klokken 19 UTC til 19. klokken 22 UTC
Sikt: 3000 m
dis

TAF: EFKI 191738Z 1918/1922 24004KT CAVOK BECMG 1919/1921 BKN006 PROB30 1919/1922 3000 BR

Værobservasjoner og værvarsel for over 4000 flyplasser (METAR- og TAF-rapporter).

Tilgjengelige stasjoner er representert av de røde og gule prikkene på kartet.

Hold musepekeren over prikken for å se navnet på stasjonen.

Klikk så for å se værobservasjoner og -varsler.

For å forandre kartet kan du klikke på den grønne knappen med svart kryss for å zoome inn, på den grønne knappen med strek for å zoome ut, eller på de grønne pilene for å se tilstøtende kart.


METAR-TAF: